createdAt,value
2022-07-29T00:01:49.598Z,17.69
2022-07-29T00:04:16.528Z,17.64
2022-07-29T00:06:43.399Z,17.61
2022-07-29T00:09:09.896Z,17.58
2022-07-29T00:11:36.347Z,17.54
2022-07-29T00:14:03.162Z,17.53
2022-07-29T00:16:29.661Z,17.50
2022-07-29T00:18:56.197Z,17.48
2022-07-29T00:21:22.687Z,17.50
2022-07-29T00:23:49.084Z,17.49
2022-07-29T00:26:15.490Z,17.43
2022-07-29T00:28:41.998Z,17.45
2022-07-29T00:31:09.059Z,17.46
2022-07-29T00:33:35.495Z,17.50
2022-07-29T00:36:01.938Z,17.45
2022-07-29T00:38:28.394Z,17.38
2022-07-29T00:40:54.806Z,17.42
2022-07-29T00:43:21.230Z,17.47
2022-07-29T00:45:47.629Z,17.50
2022-07-29T00:48:14.053Z,17.55
2022-07-29T00:50:40.730Z,17.54
2022-07-29T00:53:08.231Z,17.47
2022-07-29T00:55:35.746Z,17.37
2022-07-29T00:58:02.186Z,17.33
2022-07-29T01:00:29.706Z,17.26
2022-07-29T01:02:56.256Z,17.34
2022-07-29T01:05:24.882Z,17.39
2022-07-29T01:07:54.600Z,17.33
2022-07-29T01:10:23.544Z,17.25
2022-07-29T01:12:52.094Z,17.28
2022-07-29T01:15:18.758Z,17.33
2022-07-29T01:18:18.160Z,17.32
2022-07-29T01:20:57.278Z,17.33
2022-07-29T01:24:05.790Z,17.38
2022-07-29T01:26:59.076Z,17.38
2022-07-29T01:29:38.871Z,17.37
2022-07-29T01:32:20.306Z,17.26
2022-07-29T01:35:02.859Z,17.24
2022-07-29T01:37:51.541Z,17.32
2022-07-29T01:40:25.245Z,17.29
2022-07-29T01:42:55.400Z,17.23
2022-07-29T01:45:34.673Z,17.17
2022-07-29T01:48:16.063Z,17.17
2022-07-29T01:50:52.730Z,17.19
2022-07-29T01:53:38.125Z,17.18
2022-07-29T01:56:07.470Z,17.20
2022-07-29T01:58:36.591Z,17.19
2022-07-29T02:01:04.510Z,17.19
2022-07-29T02:03:33.338Z,17.22
2022-07-29T02:06:04.098Z,17.25
2022-07-29T02:08:33.588Z,17.30
2022-07-29T02:11:03.176Z,17.29
2022-07-29T02:13:32.270Z,17.33
2022-07-29T02:16:00.489Z,17.37
2022-07-29T02:18:31.192Z,17.39
2022-07-29T02:21:00.313Z,17.42
2022-07-29T02:23:27.319Z,17.34
2022-07-29T02:25:58.656Z,17.29
2022-07-29T02:28:28.457Z,17.28
2022-07-29T02:30:58.242Z,17.22
2022-07-29T02:33:26.346Z,17.22
2022-07-29T02:35:53.557Z,17.24
2022-07-29T02:38:40.556Z,17.23
2022-07-29T02:41:12.463Z,17.22
2022-07-29T02:43:41.497Z,17.25
2022-07-29T02:46:28.449Z,17.32
2022-07-29T02:49:33.057Z,17.31
2022-07-29T02:52:03.347Z,17.30
2022-07-29T02:54:42.056Z,17.21
2022-07-29T02:57:54.785Z,17.18
2022-07-29T03:00:25.048Z,17.19
2022-07-29T03:02:55.012Z,17.21
2022-07-29T03:05:22.705Z,17.21
2022-07-29T03:07:57.033Z,17.18
2022-07-29T03:10:25.920Z,17.14
2022-07-29T03:12:52.861Z,17.15
2022-07-29T03:15:20.289Z,17.13
2022-07-29T03:17:47.182Z,17.08
2022-07-29T03:20:14.577Z,17.06
2022-07-29T03:22:44.929Z,17.12
2022-07-29T03:25:12.473Z,17.16
2022-07-29T03:27:39.053Z,17.13
2022-07-29T03:30:08.830Z,17.10
2022-07-29T03:32:36.171Z,17.13
2022-07-29T03:35:03.585Z,17.11
2022-07-29T03:37:31.455Z,17.05
2022-07-29T03:39:59.100Z,17.04
2022-07-29T03:42:34.073Z,17.00
2022-07-29T03:45:04.338Z,16.94
2022-07-29T03:47:50.391Z,17.02
2022-07-29T03:50:20.257Z,17.07
2022-07-29T03:52:47.565Z,17.05
2022-07-29T03:55:14.903Z,17.07
2022-07-29T03:57:42.477Z,17.10
2022-07-29T04:00:10.030Z,17.09
2022-07-29T04:02:38.706Z,17.01
2022-07-29T04:05:05.706Z,16.96
2022-07-29T04:07:32.112Z,16.96
2022-07-29T04:09:58.542Z,16.99
2022-07-29T04:12:25.882Z,16.98
2022-07-29T04:14:52.257Z,16.96
2022-07-29T04:17:18.682Z,16.92
2022-07-29T04:19:45.137Z,16.93
2022-07-29T04:22:11.518Z,16.93
2022-07-29T04:24:37.898Z,16.94
2022-07-29T04:27:04.427Z,16.96
2022-07-29T04:29:30.831Z,17.02
2022-07-29T04:31:57.235Z,17.05
2022-07-29T04:34:28.288Z,17.03
2022-07-29T04:36:55.156Z,17.01
2022-07-29T04:39:23.242Z,17.07
2022-07-29T04:41:51.055Z,17.12
2022-07-29T04:44:19.574Z,17.09
2022-07-29T04:46:46.631Z,17.08
2022-07-29T04:49:14.081Z,17.09
2022-07-29T04:51:40.842Z,17.04
2022-07-29T04:54:07.268Z,16.97
2022-07-29T04:56:33.812Z,16.96
2022-07-29T04:59:00.262Z,17.01
2022-07-29T05:01:26.682Z,17.02
2022-07-29T05:03:57.111Z,17.04
2022-07-29T05:06:26.405Z,17.10
2022-07-29T05:08:52.830Z,17.07
2022-07-29T05:11:21.799Z,17.12
2022-07-29T05:13:49.633Z,17.16
2022-07-29T05:16:16.121Z,17.13
2022-07-29T05:18:43.071Z,17.07
2022-07-29T05:21:09.601Z,17.11
2022-07-29T05:23:36.047Z,17.06
2022-07-29T05:26:02.593Z,17.02
2022-07-29T05:28:29.006Z,17.04
2022-07-29T05:30:55.545Z,17.11
2022-07-29T05:33:36.374Z,17.12
2022-07-29T05:36:08.035Z,17.12
2022-07-29T05:38:36.327Z,17.12
2022-07-29T05:41:03.029Z,17.12
2022-07-29T05:43:29.538Z,17.12
2022-07-29T05:45:56.317Z,17.09
2022-07-29T05:48:22.946Z,17.09
2022-07-29T05:50:49.331Z,17.09
2022-07-29T05:53:19.833Z,17.10
2022-07-29T05:55:48.620Z,17.07
2022-07-29T05:58:15.232Z,17.03
2022-07-29T06:00:41.907Z,17.09
2022-07-29T06:03:08.315Z,17.16
2022-07-29T06:05:34.859Z,17.22
2022-07-29T06:08:01.326Z,17.22
2022-07-29T06:10:27.823Z,17.20
2022-07-29T06:12:54.444Z,17.18
2022-07-29T06:15:21.087Z,17.24
2022-07-29T06:17:59.774Z,17.36
2022-07-29T06:20:32.131Z,17.47
2022-07-29T06:22:59.782Z,17.46
2022-07-29T06:25:26.980Z,17.51
2022-07-29T06:27:53.434Z,17.60
2022-07-29T06:30:19.926Z,17.64
2022-07-29T06:32:46.448Z,17.71
2022-07-29T06:35:37.768Z,17.77
2022-07-29T06:37:59.800Z,17.87
2022-07-29T06:40:45.568Z,17.85
2022-07-29T06:43:12.115Z,17.79
2022-07-29T06:45:42.032Z,17.72
2022-07-29T06:48:09.068Z,17.70
2022-07-29T06:50:35.540Z,17.71
2022-07-29T06:53:02.026Z,17.75
2022-07-29T06:55:28.461Z,17.84
2022-07-29T06:57:54.946Z,17.92
2022-07-29T07:00:21.426Z,17.86
2022-07-29T07:02:47.923Z,17.79
2022-07-29T07:05:14.438Z,17.80
2022-07-29T07:07:40.870Z,17.80
2022-07-29T07:10:07.707Z,17.78
2022-07-29T07:12:34.137Z,17.69
2022-07-29T07:15:00.653Z,17.63
2022-07-29T07:17:27.074Z,17.68
2022-07-29T07:19:53.513Z,17.72
2022-07-29T07:22:20.018Z,17.81
2022-07-29T07:24:46.417Z,17.81
2022-07-29T07:27:12.892Z,17.82
2022-07-29T07:29:42.000Z,17.78
2022-07-29T07:32:10.974Z,17.76
2022-07-29T07:34:38.717Z,17.83
2022-07-29T07:37:05.368Z,17.86
2022-07-29T07:39:31.800Z,17.89
2022-07-29T07:41:58.211Z,17.89
2022-07-29T07:44:24.627Z,17.89
2022-07-29T07:46:51.095Z,17.92
2022-07-29T07:49:17.630Z,18.00
2022-07-29T07:51:44.227Z,18.06
2022-07-29T07:54:17.801Z,18.06
2022-07-29T07:56:44.717Z,18.08
2022-07-29T07:59:11.282Z,18.13
2022-07-29T08:01:55.156Z,18.24
2022-07-29T08:04:27.493Z,18.23
2022-07-29T08:06:57.433Z,18.23
2022-07-29T08:09:29.683Z,18.15
2022-07-29T08:11:57.632Z,18.15
2022-07-29T08:14:24.081Z,18.20
2022-07-29T08:16:50.659Z,18.27
2022-07-29T08:19:17.158Z,18.34
2022-07-29T08:21:43.745Z,18.36
2022-07-29T08:24:28.732Z,18.29
2022-07-29T08:26:55.145Z,18.20
2022-07-29T08:29:21.573Z,18.24
2022-07-29T08:31:48.173Z,18.33
2022-07-29T08:34:14.668Z,18.35
2022-07-29T08:36:41.167Z,18.44
2022-07-29T08:39:07.575Z,18.53
2022-07-29T08:41:33.975Z,18.54
2022-07-29T08:44:00.417Z,18.49
2022-07-29T08:46:26.922Z,18.56
2022-07-29T08:48:53.403Z,18.65
2022-07-29T08:51:22.356Z,18.73
2022-07-29T08:53:50.367Z,18.78
2022-07-29T08:56:18.900Z,18.80
2022-07-29T08:58:50.625Z,18.78
2022-07-29T09:01:35.827Z,18.68
2022-07-29T09:04:05.369Z,18.66
2022-07-29T09:06:35.175Z,18.73
2022-07-29T09:09:01.945Z,18.68
2022-07-29T09:11:29.182Z,18.72
2022-07-29T09:13:55.593Z,18.84
2022-07-29T09:16:43.811Z,18.89
2022-07-29T09:19:24.906Z,18.95
2022-07-29T09:22:03.371Z,18.97
2022-07-29T09:24:43.831Z,19.00
2022-07-29T09:27:22.215Z,19.02
2022-07-29T09:30:00.197Z,19.12
2022-07-29T09:32:27.521Z,19.23
2022-07-29T09:35:17.304Z,19.29
2022-07-29T09:37:44.998Z,19.26
2022-07-29T09:40:16.899Z,19.32
2022-07-29T09:42:46.114Z,19.46
2022-07-29T09:45:13.853Z,19.57
2022-07-29T09:47:50.027Z,19.65
2022-07-29T09:50:17.259Z,19.68
2022-07-29T09:52:49.741Z,19.61
2022-07-29T09:55:18.182Z,19.64
2022-07-29T09:57:45.830Z,19.84
2022-07-29T10:00:18.870Z,19.94
2022-07-29T10:02:47.218Z,19.90
2022-07-29T10:05:25.621Z,19.96
2022-07-29T10:07:55.215Z,19.96
2022-07-29T10:10:25.149Z,19.87
2022-07-29T10:13:01.815Z,19.90
2022-07-29T10:15:38.129Z,19.99
2022-07-29T10:18:05.157Z,20.14
2022-07-29T10:20:31.589Z,20.13
2022-07-29T10:22:58.222Z,20.18
2022-07-29T10:25:26.274Z,20.22
2022-07-29T10:27:54.132Z,20.31
2022-07-29T10:30:22.932Z,20.35
2022-07-29T10:33:01.801Z,20.40
2022-07-29T10:35:53.125Z,20.54
2022-07-29T10:38:45.741Z,20.52
2022-07-29T10:41:27.786Z,20.49
2022-07-29T10:44:12.377Z,20.45
2022-07-29T10:46:44.929Z,20.49
2022-07-29T10:49:24.766Z,20.53
2022-07-29T10:52:10.421Z,20.54
2022-07-29T10:54:37.087Z,20.52
2022-07-29T10:57:19.446Z,20.57
2022-07-29T10:59:50.407Z,20.56
2022-07-29T11:02:41.955Z,20.56
2022-07-29T11:05:12.821Z,20.61
2022-07-29T11:07:45.862Z,20.59
2022-07-29T11:10:16.227Z,20.54
2022-07-29T11:12:42.743Z,20.51
2022-07-29T11:15:24.915Z,20.57
2022-07-29T11:17:54.605Z,20.66
2022-07-29T11:20:44.082Z,20.76
2022-07-29T11:23:33.997Z,20.81
2022-07-29T11:26:10.717Z,20.67
2022-07-29T11:28:52.087Z,20.59
2022-07-29T11:31:43.862Z,20.65
2022-07-29T11:34:31.746Z,20.77
2022-07-29T11:37:07.623Z,20.83
2022-07-29T11:39:36.596Z,20.85
2022-07-29T11:42:32.369Z,20.82
2022-07-29T11:45:41.271Z,20.81
2022-07-29T11:50:53.477Z,21.04
2022-07-29T11:53:20.401Z,21.04
2022-07-29T11:55:55.270Z,21.08
2022-07-29T11:58:26.197Z,21.05
2022-07-29T12:00:53.127Z,21.09
2022-07-29T12:03:35.317Z,21.04
2022-07-29T12:06:12.197Z,20.86
2022-07-29T12:07:03.511Z,20.86
2022-07-29T12:08:44.195Z,20.82
2022-07-29T12:11:22.437Z,20.84
2022-07-29T12:13:52.721Z,20.79
2022-07-29T12:16:29.209Z,20.90
2022-07-29T12:19:02.460Z,20.98
2022-07-29T12:21:30.385Z,20.96
2022-07-29T12:24:05.725Z,20.99
2022-07-29T12:26:35.625Z,21.03
2022-07-29T12:29:03.603Z,21.01
2022-07-29T12:31:42.049Z,21.11
2022-07-29T12:34:12.863Z,21.21
2022-07-29T12:36:39.442Z,21.18
2022-07-29T12:39:06.147Z,21.25
2022-07-29T12:41:33.175Z,21.24
2022-07-29T12:43:59.650Z,21.21
2022-07-29T12:46:26.351Z,21.29
2022-07-29T12:48:55.674Z,21.41
2022-07-29T12:51:34.183Z,21.41
2022-07-29T12:54:11.388Z,21.44
2022-07-29T12:56:43.505Z,21.35
2022-07-29T12:59:21.328Z,21.39
2022-07-29T13:01:50.343Z,21.53
2022-07-29T13:04:31.442Z,21.58
2022-07-29T13:07:08.048Z,21.62
2022-07-29T13:09:48.630Z,21.71
2022-07-29T13:12:15.413Z,21.80
2022-07-29T13:14:44.346Z,21.90
2022-07-29T13:17:13.705Z,22.00
2022-07-29T13:20:08.836Z,22.10
2022-07-29T13:22:36.682Z,22.21
2022-07-29T13:25:03.583Z,22.34
2022-07-29T13:27:37.369Z,22.34
2022-07-29T13:30:07.470Z,22.29
2022-07-29T13:32:37.386Z,22.30
2022-07-29T13:35:07.094Z,22.37
2022-07-29T13:37:35.738Z,22.43
2022-07-29T13:40:04.248Z,22.48
2022-07-29T13:42:31.442Z,22.36
2022-07-29T13:44:57.938Z,22.35
2022-07-29T13:47:32.607Z,22.37
2022-07-29T13:50:01.154Z,22.49
2022-07-29T13:52:28.196Z,22.50
2022-07-29T13:54:54.650Z,22.47
2022-07-29T13:57:21.088Z,22.41
2022-07-29T13:59:51.892Z,22.35
2022-07-29T14:02:20.305Z,22.37
2022-07-29T14:04:46.875Z,22.42
2022-07-29T14:07:16.309Z,22.39
2022-07-29T14:09:43.344Z,22.35
2022-07-29T14:12:10.236Z,22.44
2022-07-29T14:14:37.495Z,22.49
2022-07-29T14:17:04.845Z,22.60
2022-07-29T14:19:32.921Z,22.62
2022-07-29T14:21:59.911Z,22.60
2022-07-29T14:24:26.698Z,22.65
2022-07-29T14:26:53.254Z,22.59
2022-07-29T14:29:19.845Z,22.53
2022-07-29T14:31:46.294Z,22.44
2022-07-29T14:34:12.760Z,22.41
2022-07-29T14:36:39.315Z,22.44
2022-07-29T14:39:05.837Z,22.46
2022-07-29T14:41:32.262Z,22.46
2022-07-29T14:44:01.439Z,22.42
2022-07-29T14:46:28.694Z,22.39
2022-07-29T14:48:55.316Z,22.37
2022-07-29T14:51:21.786Z,22.39
2022-07-29T14:53:48.181Z,22.38
2022-07-29T14:56:35.404Z,22.39
2022-07-29T14:59:01.659Z,22.38
2022-07-29T15:01:28.262Z,22.35
2022-07-29T15:03:59.394Z,22.39
2022-07-29T15:06:26.437Z,22.40
2022-07-29T15:08:52.869Z,22.44
2022-07-29T15:11:19.301Z,22.47
2022-07-29T15:13:45.708Z,22.48
2022-07-29T15:16:12.196Z,22.40
2022-07-29T15:18:39.246Z,22.35
2022-07-29T15:21:07.781Z,22.36
2022-07-29T15:23:37.129Z,22.44
2022-07-29T15:26:04.986Z,22.55
2022-07-29T15:28:31.475Z,22.49
2022-07-29T15:30:58.064Z,22.34
2022-07-29T15:33:24.533Z,22.26
2022-07-29T15:35:51.015Z,22.25
2022-07-29T15:38:17.582Z,22.36
2022-07-29T15:40:44.690Z,22.48
2022-07-29T15:43:11.197Z,22.56
2022-07-29T15:45:40.446Z,22.55
2022-07-29T15:48:08.959Z,22.46
2022-07-29T15:50:35.674Z,22.39
2022-07-29T15:53:03.001Z,22.35
2022-07-29T15:55:29.467Z,22.29
2022-07-29T15:58:00.106Z,22.31
2022-07-29T16:00:27.084Z,22.36
2022-07-29T16:02:53.552Z,22.38
2022-07-29T16:05:19.999Z,22.32
2022-07-29T16:07:46.598Z,22.33
2022-07-29T16:10:14.859Z,22.38
2022-07-29T16:12:41.284Z,22.41
2022-07-29T16:15:10.351Z,22.42
2022-07-29T16:17:38.159Z,22.43
2022-07-29T16:20:05.915Z,22.43
2022-07-29T16:22:32.363Z,22.42
2022-07-29T16:24:58.817Z,22.35
2022-07-29T16:27:35.395Z,22.35
2022-07-29T16:30:06.230Z,22.33
2022-07-29T16:32:32.659Z,22.32
2022-07-29T16:34:59.094Z,22.37
2022-07-29T16:37:25.791Z,22.38
2022-07-29T16:39:55.319Z,22.39
2022-07-29T16:42:45.011Z,22.38
2022-07-29T16:45:26.132Z,22.46
2022-07-29T16:48:00.397Z,22.50
2022-07-29T16:50:28.697Z,22.49
2022-07-29T16:52:55.691Z,22.43
2022-07-29T16:55:22.458Z,22.35
2022-07-29T16:57:49.046Z,22.35
2022-07-29T17:00:17.402Z,22.28
2022-07-29T17:02:43.804Z,22.21
2022-07-29T17:05:12.162Z,22.21
2022-07-29T17:07:39.687Z,22.17
2022-07-29T17:10:10.068Z,22.18
2022-07-29T17:12:38.297Z,22.15
2022-07-29T17:15:06.748Z,22.09
2022-07-29T17:17:38.798Z,22.03
2022-07-29T17:20:19.831Z,21.97
2022-07-29T17:22:46.241Z,21.93
2022-07-29T17:25:13.647Z,21.96
2022-07-29T17:27:49.497Z,22.06
2022-07-29T17:30:16.065Z,22.10
2022-07-29T17:32:42.510Z,22.10
2022-07-29T17:35:28.035Z,22.08
2022-07-29T17:37:54.790Z,22.13
2022-07-29T17:40:21.520Z,22.12
2022-07-29T17:42:47.939Z,22.07
2022-07-29T17:45:14.405Z,22.05
2022-07-29T17:47:41.740Z,22.11
2022-07-29T17:50:08.561Z,22.08
2022-07-29T17:52:34.977Z,22.08
2022-07-29T17:55:02.404Z,22.06
2022-07-29T17:57:28.893Z,22.07
2022-07-29T17:59:55.311Z,22.08
2022-07-29T18:02:21.724Z,22.06
2022-07-29T18:04:50.646Z,22.04
2022-07-29T18:07:17.233Z,22.12
2022-07-29T18:09:43.861Z,22.15
2022-07-29T18:12:10.289Z,22.13
2022-07-29T18:14:36.832Z,22.13
2022-07-29T18:17:03.214Z,22.15
2022-07-29T18:19:29.699Z,22.16
2022-07-29T18:21:59.306Z,22.14
2022-07-29T18:24:31.483Z,22.10
2022-07-29T18:26:58.055Z,22.05
2022-07-29T18:29:24.834Z,21.92
2022-07-29T18:31:51.250Z,21.90
2022-07-29T18:34:17.690Z,21.89
2022-07-29T18:36:45.559Z,21.86
2022-07-29T18:39:13.104Z,21.80
2022-07-29T18:41:50.645Z,21.78
2022-07-29T18:44:21.884Z,21.78
2022-07-29T18:46:49.765Z,21.79
2022-07-29T18:49:16.380Z,21.80
2022-07-29T18:51:43.062Z,21.68
2022-07-29T18:54:10.398Z,21.67
2022-07-29T18:56:37.205Z,21.63
2022-07-29T18:59:04.155Z,21.63
2022-07-29T19:01:31.856Z,21.63
2022-07-29T19:03:58.673Z,21.61
2022-07-29T19:06:25.913Z,21.58
2022-07-29T19:08:52.690Z,21.54
2022-07-29T19:11:19.122Z,21.52
2022-07-29T19:13:45.647Z,21.49
2022-07-29T19:16:13.868Z,21.46
2022-07-29T19:18:41.311Z,21.51
2022-07-29T19:21:07.751Z,21.51
2022-07-29T19:24:01.530Z,21.51
2022-07-29T19:26:20.945Z,21.50
2022-07-29T19:28:48.876Z,21.47
2022-07-29T19:31:15.745Z,21.45
2022-07-29T19:33:42.576Z,21.40
2022-07-29T19:36:09.026Z,21.38
2022-07-29T19:38:35.462Z,21.40
2022-07-29T19:41:01.863Z,21.39
2022-07-29T19:43:49.923Z,21.34
2022-07-29T19:46:14.698Z,21.25
2022-07-29T19:48:41.204Z,21.16
2022-07-29T19:51:07.712Z,21.11
2022-07-29T19:53:34.141Z,21.09
2022-07-29T19:56:00.565Z,21.07
2022-07-29T19:58:27.212Z,21.07
2022-07-29T20:00:54.672Z,20.99
2022-07-29T20:03:21.098Z,20.96
2022-07-29T20:05:50.907Z,20.92
2022-07-29T20:08:17.917Z,20.87
2022-07-29T20:10:44.454Z,20.86
2022-07-29T20:13:10.979Z,20.80
2022-07-29T20:15:37.663Z,20.80
2022-07-29T20:18:04.249Z,20.82
2022-07-29T20:20:30.786Z,20.82
2022-07-29T20:22:57.224Z,20.81
2022-07-29T20:25:23.898Z,20.77
2022-07-29T20:27:52.272Z,20.74
2022-07-29T20:30:22.409Z,20.67
2022-07-29T20:32:49.657Z,20.61
2022-07-29T20:35:16.282Z,20.65
2022-07-29T20:37:52.241Z,20.63
2022-07-29T20:40:24.625Z,20.60
2022-07-29T20:42:51.031Z,20.59
2022-07-29T20:45:17.817Z,20.49
2022-07-29T20:47:44.211Z,20.45
2022-07-29T20:50:10.683Z,20.41
2022-07-29T20:52:39.375Z,20.37
2022-07-29T20:55:08.162Z,20.36
2022-07-29T20:57:38.998Z,20.30
2022-07-29T21:00:07.235Z,20.27
2022-07-29T21:02:33.706Z,20.24
2022-07-29T21:05:00.813Z,20.24
2022-07-29T21:07:27.228Z,20.24
2022-07-29T21:09:53.643Z,20.25
2022-07-29T21:12:20.034Z,20.21
2022-07-29T21:14:49.755Z,20.16
2022-07-29T21:17:16.851Z,20.16
2022-07-29T21:19:43.317Z,20.16
2022-07-29T21:22:09.813Z,20.17
2022-07-29T21:24:36.276Z,20.22
2022-07-29T21:27:21.885Z,20.20
2022-07-29T21:29:48.778Z,20.17
2022-07-29T21:32:29.471Z,20.13
2022-07-29T21:34:57.876Z,20.14
2022-07-29T21:37:24.313Z,20.11
2022-07-29T21:39:50.771Z,20.09
2022-07-29T21:42:17.182Z,20.08
2022-07-29T21:44:43.796Z,20.12
2022-07-29T21:47:11.682Z,20.11
2022-07-29T21:49:38.179Z,20.02
2022-07-29T21:52:05.532Z,19.89
2022-07-29T21:54:34.510Z,19.86
2022-07-29T21:57:00.988Z,19.86
2022-07-29T21:59:27.477Z,19.91
2022-07-29T22:01:54.065Z,19.90
2022-07-29T22:04:20.835Z,19.92
2022-07-29T22:06:47.624Z,19.91
2022-07-29T22:09:14.066Z,19.90
2022-07-29T22:11:40.897Z,19.85
2022-07-29T22:14:07.430Z,19.79
2022-07-29T22:16:34.005Z,19.78
2022-07-29T22:19:00.530Z,19.74
2022-07-29T22:21:27.010Z,19.71
2022-07-29T22:23:53.417Z,19.68
2022-07-29T22:26:19.856Z,19.68
2022-07-29T22:28:46.241Z,19.67
2022-07-29T22:31:12.747Z,19.63
2022-07-29T22:33:39.226Z,19.57
2022-07-29T22:36:05.860Z,19.53
2022-07-29T22:38:32.272Z,19.47
2022-07-29T22:41:00.613Z,19.45
2022-07-29T22:43:28.280Z,19.42
2022-07-29T22:45:54.831Z,19.41
2022-07-29T22:48:21.289Z,19.43
2022-07-29T22:50:47.708Z,19.46
2022-07-29T22:53:14.125Z,19.44
2022-07-29T22:55:40.543Z,19.43
2022-07-29T22:58:06.950Z,19.44
2022-07-29T23:00:33.581Z,19.44
2022-07-29T23:02:59.988Z,19.43
2022-07-29T23:05:26.386Z,19.42
2022-07-29T23:07:52.798Z,19.43
2022-07-29T23:10:19.269Z,19.41
2022-07-29T23:12:45.705Z,19.41
2022-07-29T23:15:12.331Z,19.39
2022-07-29T23:17:38.903Z,19.37
2022-07-29T23:20:07.748Z,19.35
2022-07-29T23:22:35.352Z,19.32
2022-07-29T23:25:01.918Z,19.32
2022-07-29T23:27:28.336Z,19.32
2022-07-29T23:29:54.721Z,19.29
2022-07-29T23:32:21.162Z,19.25
2022-07-29T23:34:47.570Z,19.21
2022-07-29T23:37:13.969Z,19.17
2022-07-29T23:39:40.371Z,19.15
2022-07-29T23:42:06.791Z,19.15
2022-07-29T23:44:33.191Z,19.16
2022-07-29T23:46:59.929Z,19.17
2022-07-29T23:49:26.674Z,19.18
2022-07-29T23:51:53.066Z,19.18
2022-07-29T23:54:19.445Z,19.18
2022-07-29T23:56:46.438Z,19.16
2022-07-29T23:59:12.905Z,19.14
